createdAt,value
2018-07-11T00:04:29.162Z,100043.61
2018-07-11T00:09:32.638Z,100041.42
2018-07-11T00:14:36.113Z,100038.95
2018-07-11T00:19:39.577Z,100031.94
2018-07-11T00:24:43.006Z,100021.94
2018-07-11T00:29:46.857Z,100027.35
2018-07-11T00:34:50.297Z,100017.86
2018-07-11T00:39:53.816Z,100017.86
2018-07-11T00:44:57.508Z,100023.03
2018-07-11T00:50:01.376Z,100010.00
2018-07-11T00:55:04.931Z,100014.09
2018-07-11T01:00:08.537Z,100005.44
2018-07-11T01:05:12.098Z,100001.62
2018-07-11T01:10:15.637Z,99989.17
2018-07-11T01:15:19.474Z,99984.31
2018-07-11T01:20:23.026Z,99981.34
2018-07-11T01:25:26.537Z,99976.44
2018-07-11T01:30:30.069Z,99974.28
2018-07-11T01:35:33.673Z,99977.27
2018-07-11T01:40:37.153Z,99971.06
2018-07-11T01:45:40.714Z,99974.84
2018-07-11T01:50:44.254Z,99972.95
2018-07-11T01:55:47.710Z,99980.28
2018-07-11T02:00:51.448Z,99974.58
2018-07-11T02:05:55.483Z,99973.23
2018-07-11T02:10:59.497Z,99973.52
2018-07-11T02:16:03.023Z,99975.67
2018-07-11T02:21:07.336Z,99983.54
2018-07-11T02:26:10.873Z,99984.91
2018-07-11T02:31:14.337Z,99992.23
2018-07-11T02:36:17.746Z,99986.52
2018-07-11T02:41:21.493Z,99988.42
2018-07-11T02:46:30.143Z,99988.44
2018-07-11T02:51:33.577Z,99990.31
2018-07-11T02:56:37.171Z,99988.70
2018-07-11T03:01:40.665Z,99983.57
2018-07-11T03:06:44.286Z,99980.30
2018-07-11T03:11:48.035Z,99975.43
2018-07-11T03:16:51.788Z,99972.72
2018-07-11T03:21:55.374Z,99971.66
2018-07-11T03:26:59.187Z,99977.06
2018-07-11T03:32:02.730Z,99980.32
2018-07-11T03:37:06.606Z,99976.55
2018-07-11T03:42:10.169Z,99975.19
2018-07-11T03:47:13.871Z,99983.31
2018-07-11T03:52:17.469Z,99986.83
2018-07-11T03:57:21.004Z,99983.30
2018-07-11T04:02:24.609Z,99990.33
2018-07-11T04:07:28.053Z,99981.94
2018-07-11T04:12:31.540Z,99979.80
2018-07-11T04:17:35.063Z,99981.72
2018-07-11T04:22:38.602Z,99990.64
2018-07-11T04:27:42.093Z,99989.00
2018-07-11T04:32:45.845Z,99989.52
2018-07-11T04:37:49.322Z,99991.97
2018-07-11T04:42:52.812Z,99994.39
2018-07-11T04:47:56.260Z,99998.72
2018-07-11T04:53:02.483Z,99998.45
2018-07-11T04:58:06.388Z,100000.08
2018-07-11T05:03:09.852Z,99996.28
2018-07-11T05:08:13.399Z,99997.08
2018-07-11T05:13:17.079Z,99997.08
2018-07-11T05:18:20.545Z,99996.81
2018-07-11T05:23:23.960Z,99995.73
2018-07-11T05:28:27.618Z,99999.23
2018-07-11T05:33:31.078Z,100003.00
2018-07-11T05:38:34.557Z,100005.44
2018-07-11T05:43:38.305Z,100004.92
2018-07-11T05:48:41.917Z,100011.66
2018-07-11T05:53:45.639Z,100014.39
2018-07-11T05:58:49.658Z,100011.41
2018-07-11T06:03:53.113Z,100017.34
2018-07-11T06:08:56.699Z,100016.01
2018-07-11T06:14:00.398Z,100020.06
2018-07-11T06:19:03.869Z,100028.98
2018-07-11T06:24:07.728Z,100024.94
2018-07-11T06:29:11.258Z,100036.87
2018-07-11T06:34:14.689Z,100030.41
2018-07-11T06:39:18.218Z,100039.34
2018-07-11T06:44:21.630Z,100044.73
2018-07-11T06:49:25.325Z,100038.52
2018-07-11T06:54:28.842Z,100047.20
2018-07-11T06:59:32.980Z,100042.06
2018-07-11T07:04:36.507Z,100049.35
2018-07-11T07:09:40.281Z,100048.02
2018-07-11T07:14:43.927Z,100041.50
2018-07-11T07:19:47.515Z,100030.69
2018-07-11T07:24:51.150Z,100027.45
2018-07-11T07:29:54.613Z,100026.64
2018-07-11T07:34:58.104Z,100021.51
2018-07-11T07:40:01.647Z,100023.67
2018-07-11T07:45:05.149Z,100019.31
2018-07-11T07:50:08.719Z,100022.56
2018-07-11T07:55:12.557Z,100016.06
2018-07-11T08:00:16.171Z,100010.35
2018-07-11T08:05:19.667Z,100001.67
2018-07-11T08:10:23.204Z,100002.22
2018-07-11T08:15:26.718Z,99991.38
2018-07-11T08:20:30.605Z,99991.38
2018-07-11T08:25:45.833Z,99990.03
2018-07-11T08:31:02.126Z,99995.42
2018-07-11T08:38:27.742Z,99992.70
2018-07-11T08:44:47.002Z,99989.73
2018-07-11T08:50:02.479Z,99988.36
2018-07-11T08:55:17.854Z,99992.69
2018-07-11T09:01:05.673Z,99993.24
2018-07-11T09:06:27.511Z,99984.83
2018-07-11T09:12:14.778Z,99989.41
2018-07-11T09:18:29.890Z,99992.14
2018-07-11T09:24:45.415Z,99988.33
2018-07-11T09:29:49.305Z,99990.76
2018-07-11T09:34:52.730Z,99995.89
2018-07-11T09:39:56.184Z,99993.47
2018-07-11T09:44:59.913Z,99993.25
2018-07-11T09:50:03.370Z,99995.17
2018-07-11T09:55:07.427Z,99990.31
2018-07-11T10:00:16.144Z,99989.78
2018-07-11T10:05:19.621Z,99988.69
2018-07-11T10:10:23.046Z,99990.03
2018-07-11T10:15:26.463Z,99994.64
2018-07-11T10:20:29.894Z,99992.19
2018-07-11T10:25:33.481Z,99994.92
2018-07-11T10:30:37.355Z,99998.45
2018-07-11T10:35:41.292Z,99991.71
2018-07-11T10:40:44.713Z,99991.44
2018-07-11T10:45:48.161Z,99992.80
2018-07-11T10:50:51.620Z,99994.97
2018-07-11T10:55:55.440Z,99996.85
2018-07-11T11:01:05.699Z,99998.73
2018-07-11T11:06:03.099Z,99997.69
2018-07-11T11:11:06.699Z,99991.69
2018-07-11T11:16:10.218Z,99991.96
2018-07-11T11:21:13.822Z,99993.60
2018-07-11T11:26:17.355Z,99984.94
2018-07-11T11:31:20.805Z,99979.24
2018-07-11T11:36:24.375Z,99972.72
2018-07-11T11:41:28.160Z,99976.79
2018-07-11T11:46:31.545Z,99966.50
2018-07-11T11:51:35.121Z,99961.08
2018-07-11T11:56:38.552Z,99955.66
2018-07-11T12:01:42.100Z,99956.98
2018-07-11T12:06:45.676Z,99963.75
2018-07-11T12:11:49.152Z,99962.38
2018-07-11T12:16:52.859Z,99953.19
2018-07-11T12:21:56.427Z,99956.14
2018-07-11T12:26:59.925Z,99957.22
2018-07-11T12:32:03.357Z,99960.73
2018-07-11T12:37:06.761Z,99957.22
2018-07-11T12:42:10.280Z,99963.18
2018-07-11T12:47:19.022Z,99952.05
2018-07-11T12:52:22.578Z,99958.03
2018-07-11T12:57:26.290Z,99959.36
2018-07-11T13:02:29.833Z,99950.44
2018-07-11T13:07:33.385Z,99953.13
2018-07-11T13:12:37.086Z,99950.39
2018-07-11T13:17:40.565Z,99941.72
2018-07-11T13:22:44.053Z,99935.48
2018-07-11T13:27:47.626Z,99935.46
2018-07-11T13:32:51.063Z,99925.98
2018-07-11T13:37:54.662Z,99927.57
2018-07-11T13:42:58.330Z,99918.34
2018-07-11T13:48:02.179Z,99915.64
2018-07-11T13:53:05.708Z,99909.70
2018-07-11T13:58:10.078Z,99904.02
2018-07-11T14:03:13.498Z,99911.58
2018-07-11T14:08:16.982Z,99912.94
2018-07-11T14:13:20.463Z,99913.48
2018-07-11T14:18:24.004Z,99914.30
2018-07-11T14:23:35.892Z,99910.48
2018-07-11T14:28:47.266Z,99909.39
2018-07-11T14:33:50.823Z,99914.01
2018-07-11T14:38:54.418Z,99914.84
2018-07-11T14:43:58.505Z,99918.09
2018-07-11T14:49:02.082Z,99926.22
2018-07-11T14:54:06.155Z,99925.70
2018-07-11T14:59:09.582Z,99924.35
2018-07-11T15:04:13.058Z,99925.41
2018-07-11T15:09:16.915Z,99935.45
2018-07-11T15:14:20.037Z,99939.52
2018-07-11T15:19:23.531Z,99947.64
2018-07-11T15:24:27.182Z,99945.74
2018-07-11T15:29:31.043Z,99954.67
2018-07-11T15:34:34.555Z,99958.73
2018-07-11T15:39:38.394Z,99958.73
2018-07-11T15:44:42.633Z,99953.33
2018-07-11T15:49:46.114Z,99954.95
2018-07-11T15:54:49.974Z,99958.75
2018-07-11T16:00:01.587Z,99954.16
2018-07-11T16:05:05.345Z,99949.81
2018-07-11T16:10:08.801Z,99948.72
2018-07-11T16:15:12.485Z,99946.25
2018-07-11T16:20:15.918Z,99946.51
2018-07-11T16:25:19.860Z,99956.28
2018-07-11T16:30:23.437Z,99960.06
2018-07-11T16:35:26.953Z,99964.91
2018-07-11T16:40:31.533Z,99958.13
2018-07-11T16:45:34.962Z,99967.37
2018-07-11T16:50:38.461Z,99960.04
2018-07-11T16:55:41.882Z,99953.27
2018-07-11T17:00:45.550Z,99951.65
2018-07-11T17:05:57.818Z,99956.52
2018-07-11T17:11:22.763Z,99959.78
2018-07-11T17:16:32.817Z,99961.66
2018-07-11T17:21:43.954Z,99967.62
2018-07-11T17:26:48.749Z,99962.18
2018-07-11T17:31:55.166Z,99958.41
2018-07-11T17:37:01.934Z,99963.56
2018-07-11T17:42:06.561Z,99967.60
2018-07-11T17:47:10.050Z,99968.96
2018-07-11T17:52:14.113Z,99972.48
2018-07-11T17:57:23.641Z,99976.84
2018-07-11T18:02:32.001Z,99982.26
2018-07-11T18:07:49.961Z,99989.02
2018-07-11T18:12:57.110Z,99985.20
2018-07-11T18:18:11.807Z,99993.60
2018-07-11T18:25:33.871Z,99992.98
2018-07-11T18:32:50.377Z,99994.33
2018-07-11T18:37:59.480Z,99994.30
2018-07-11T18:43:19.057Z,99990.79
2018-07-11T18:48:34.222Z,99998.64
2018-07-11T18:54:16.249Z,99998.92
2018-07-11T19:01:34.934Z,100000.55
2018-07-11T19:08:51.438Z,100000.56
2018-07-11T19:14:00.034Z,100001.14
2018-07-11T19:19:09.347Z,100008.47
2018-07-11T19:24:20.826Z,100010.37
2018-07-11T19:29:50.273Z,100009.56
2018-07-11T19:35:07.926Z,100011.49
2018-07-11T19:40:36.265Z,100017.72
2018-07-11T19:46:03.871Z,100024.50
2018-07-11T19:51:15.260Z,100025.05
2018-07-11T19:56:28.125Z,100024.50
2018-07-11T20:01:31.591Z,100023.14
2018-07-11T20:06:35.074Z,100019.91
2018-07-11T20:11:38.788Z,100019.10
2018-07-11T20:16:42.390Z,100023.97
2018-07-11T20:21:45.892Z,100021.52
2018-07-11T20:26:49.637Z,100021.29
2018-07-11T20:31:53.832Z,100024.80
2018-07-11T20:36:58.101Z,100026.71
2018-07-11T20:42:02.356Z,100028.35
2018-07-11T20:47:05.768Z,100037.55
2018-07-11T20:52:09.285Z,100033.51
2018-07-11T20:57:12.756Z,100040.83
2018-07-11T21:02:27.469Z,100045.97
2018-07-11T21:07:53.891Z,100041.09
2018-07-11T21:13:19.994Z,100045.16
2018-07-11T21:19:09.245Z,100044.37
2018-07-11T21:24:13.541Z,100055.47
2018-07-11T21:29:16.992Z,100056.02
2018-07-11T21:34:20.589Z,100054.41
2018-07-11T21:39:24.107Z,100060.92
2018-07-11T21:44:27.632Z,100062.27
2018-07-11T21:49:31.138Z,100063.63
2018-07-11T21:54:34.868Z,100054.42
2018-07-11T21:59:38.330Z,100053.34
2018-07-11T22:04:41.799Z,100039.80
2018-07-11T22:09:45.359Z,100047.66
2018-07-11T22:14:48.832Z,100050.11
2018-07-11T22:19:51.211Z,100057.41
2018-07-11T22:24:53.568Z,100060.69
2018-07-11T22:29:56.004Z,100054.43
2018-07-11T22:34:58.582Z,100057.16
2018-07-11T22:40:00.938Z,100054.72
2018-07-11T22:45:03.356Z,100040.61
2018-07-11T22:50:06.351Z,100042.50
2018-07-11T22:55:08.777Z,100049.84
2018-07-11T23:00:11.323Z,100052.27
2018-07-11T23:05:13.665Z,100039.80
2018-07-11T23:10:16.038Z,100033.57
2018-07-11T23:15:18.512Z,100039.80
2018-07-11T23:20:20.908Z,100033.57
2018-07-11T23:25:23.266Z,100026.25
2018-07-11T23:30:25.640Z,100026.27
2018-07-11T23:35:28.017Z,100032.23
2018-07-11T23:40:30.410Z,100041.71
2018-07-11T23:45:33.031Z,100045.23
2018-07-11T23:50:35.545Z,100035.75
2018-07-11T23:55:37.930Z,100032.52
